Time;durP1;ratioP1;P1;durP2;ratioP2;P2;SDS_P1;SDS_P2;PMS_P1;PMS_P2;Temp;Humidity;BMP_temperature;BMP_pressure;BME280_temperature;BME280_humidity;BME280_pressure;Samples;Min_cycle;Max_cycle;Signal;HPM_P1;HPM_P2
2021/01/03 00:01:45;;;;;;;16.55;11.38;;;15.90;64.10;;;;;;5015630;28;20029;-53
2021/01/03 00:04:10;;;;;;;15.52;11.05;;;15.90;64.00;;;;;;5015805;28;20071;-56
2021/01/03 00:06:36;;;;;;;13.13;10.23;;;15.90;64.00;;;;;;5015911;28;20045;-56
2021/01/03 00:09:03;;;;;;;15.20;10.27;;;15.80;64.00;;;;;;5033695;28;20029;-56
2021/01/03 00:11:28;;;;;;;14.38;10.85;;;15.80;64.10;;;;;;5033287;28;20388;-57
2021/01/03 00:13:54;;;;;;;14.15;10.88;;;15.90;64.10;;;;;;5033312;28;20017;-56
2021/01/03 00:16:20;;;;;;;14.05;10.90;;;15.80;64.00;;;;;;5016094;28;20033;-55
2021/01/03 00:18:46;;;;;;;15.90;11.57;;;15.80;64.10;;;;;;5015759;28;20438;-56
2021/01/03 00:21:11;;;;;;;14.98;10.23;;;15.80;64.10;;;;;;5017212;28;20049;-56
2021/01/03 00:23:37;;;;;;;13.73;10.18;;;15.80;64.10;;;;;;5033366;28;20075;-54
2021/01/03 00:26:03;;;;;;;13.07;10.77;;;15.70;64.00;;;;;;5015333;28;20030;-55
2021/01/03 00:28:29;;;;;;;13.27;10.13;;;15.80;64.20;;;;;;5033057;28;20026;-56
2021/01/03 00:30:54;;;;;;;11.98;9.93;;;15.80;64.30;;;;;;5033138;28;20059;-56
2021/01/03 00:33:21;;;;;;;13.00;10.02;;;15.80;64.20;;;;;;5015468;28;20056;-56
2021/01/03 00:35:46;;;;;;;13.60;9.88;;;15.80;64.10;;;;;;5015443;28;20060;-55
2021/01/03 00:38:12;;;;;;;13.68;10.35;;;15.80;64.20;;;;;;5015443;28;20472;-56
2021/01/03 00:40:39;;;;;;;15.80;10.52;;;15.80;64.30;;;;;;5014994;28;20075;-56
2021/01/03 00:43:06;;;;;;;12.82;10.20;;;15.80;64.20;;;;;;5015274;28;20468;-56
2021/01/03 00:45:32;;;;;;;13.93;10.13;;;15.80;64.10;;;;;;5015072;28;20530;-56
2021/01/03 00:47:58;;;;;;;13.88;10.57;;;15.80;64.30;;;;;;5032888;28;20021;-55
2021/01/03 00:50:24;;;;;;;12.95;10.13;;;15.80;64.30;;;;;;5015189;28;20115;-56
2021/01/03 00:52:50;;;;;;;14.27;10.68;;;15.80;64.20;;;;;;5014991;28;20383;-55
2021/01/03 00:55:17;;;;;;;12.93;9.57;;;15.80;64.10;;;;;;5014979;28;20032;-56
2021/01/03 00:57:42;;;;;;;14.45;10.77;;;15.70;64.20;;;;;;5014916;28;20027;-56
2021/01/03 01:00:26;;;;;;;13.85;10.20;;;15.70;64.20;;;;;;5032699;28;20030;-55
2021/01/03 01:02:52;;;;;;;14.63;10.60;;;15.80;64.20;;;;;;5032564;28;20108;-57
2021/01/03 01:05:20;;;;;;;14.38;10.18;;;15.80;64.00;;;;;;5014755;28;20453;-56
2021/01/03 01:07:46;;;;;;;13.20;10.32;;;15.70;64.00;;;;;;5014737;28;20026;-56
2021/01/03 01:10:19;;;;;;;13.65;10.55;;;15.80;64.10;;;;;;5032508;28;20033;-55
2021/01/03 01:12:45;;;;;;;15.20;10.13;;;15.80;64.10;;;;;;5032412;28;20025;-56
2021/01/03 01:15:17;;;;;;;13.52;9.93;;;15.80;63.90;;;;;;5032479;28;20438;-57
2021/01/03 01:17:51;;;;;;;14.38;10.48;;;15.70;64.10;;;;;;5032232;28;20029;-56
2021/01/03 01:20:19;;;;;;;11.68;9.15;;;15.70;64.00;;;;;;5014474;28;20071;-56
2021/01/03 01:22:45;;;;;;;14.15;10.13;;;15.70;64.00;;;;;;5016333;28;20068;-55
2021/01/03 01:25:12;;;;;;;14.05;10.73;;;15.70;64.00;;;;;;5014410;28;20033;-56
2021/01/03 01:27:37;;;;;;;13.50;10.40;;;15.70;64.00;;;;;;5014397;28;20022;-56
2021/01/03 01:30:05;;;;;;;12.40;9.55;;;15.80;64.10;;;;;;5014256;28;20538;-56
2021/01/03 01:32:30;;;;;;;12.57;9.85;;;15.70;64.00;;;;;;5013777;28;20112;-55
2021/01/03 01:34:56;;;;;;;12.40;9.52;;;15.70;63.90;;;;;;5014041;28;20117;-55
2021/01/03 01:37:22;;;;;;;15.02;10.02;;;15.70;64.10;;;;;;5014361;28;20024;-56
2021/01/03 01:39:49;;;;;;;13.45;10.27;;;15.80;64.10;;;;;;5014382;28;20053;-53
2021/01/03 01:42:16;;;;;;;11.48;9.65;;;15.70;63.90;;;;;;5014337;28;20068;-55
2021/01/03 01:44:41;;;;;;;12.77;9.73;;;15.70;63.80;;;;;;5032008;28;20427;-57
2021/01/03 01:47:25;;;;;;;14.45;9.15;;;15.70;63.90;;;;;;5014273;28;20029;-56
2021/01/03 01:49:53;;;;;;;11.40;9.40;;;15.70;63.90;;;;;;5014274;28;20487;-56
2021/01/03 01:52:20;;;;;;;11.90;9.20;;;15.70;64.00;;;;;;5014182;28;20436;-56
2021/01/03 01:54:54;;;;;;;12.40;9.55;;;15.70;63.80;;;;;;5014375;28;20119;-56
2021/01/03 01:57:38;;;;;;;13.75;9.90;;;15.70;63.80;;;;;;5014340;28;20241;-55
2021/01/03 02:00:13;;;;;;;13.60;9.30;;;15.70;63.90;;;;;;5014120;28;20083;-55
2021/01/03 02:03:08;;;;;;;11.77;9.10;;;15.70;63.80;;;;;;5031716;28;20029;-56
2021/01/03 02:05:55;;;;;;;12.85;9.50;;;15.70;63.80;;;;;;5031805;28;20041;-57
2021/01/03 02:08:46;;;;;;;11.38;8.95;;;15.70;63.80;;;;;;5014181;28;20021;-56
2021/01/03 02:11:17;;;;;;;13.27;10.13;;;15.70;63.80;;;;;;5031866;28;20096;-55
2021/01/03 02:13:49;;;;;;;14.43;9.52;;;15.70;63.70;;;;;;5031417;28;20033;-56
2021/01/03 02:16:24;;;;;;;12.27;9.02;;;15.70;63.70;;;;;;5031614;28;20045;-56
2021/01/03 02:18:52;;;;;;;11.13;8.68;;;15.70;63.70;;;;;;5013926;28;20053;-56
2021/01/03 02:21:26;;;;;;;12.77;9.27;;;15.70;63.80;;;;;;5015048;28;20051;-56
2021/01/03 02:24:08;;;;;;;10.93;8.60;;;15.70;63.60;;;;;;5013929;28;20395;-55
2021/01/03 02:26:41;;;;;;;11.57;8.95;;;15.70;63.50;;;;;;4997705;28;20033;-56
2021/01/03 02:29:10;;;;;;;12.52;9.68;;;15.70;63.60;;;;;;5013852;28;20030;-54
2021/01/03 02:31:41;;;;;;;12.50;8.90;;;15.70;63.60;;;;;;5013553;28;20120;-55
2021/01/03 02:34:10;;;;;;;11.52;9.15;;;15.70;63.40;;;;;;5031230;28;20080;-56
2021/01/03 02:36:43;;;;;;;12.23;8.73;;;15.60;63.50;;;;;;5013776;28;20083;-55
2021/01/03 02:39:29;;;;;;;12.02;9.30;;;15.70;63.60;;;;;;5013785;28;20029;-55
2021/01/03 02:41:58;;;;;;;10.57;8.35;;;15.70;63.50;;;;;;5031281;28;20014;-56
2021/01/03 02:44:24;;;;;;;11.52;9.07;;;15.70;63.50;;;;;;5014436;28;20129;-56
2021/01/03 02:46:53;;;;;;;11.65;8.63;;;15.60;63.50;;;;;;5017351;28;20116;-56
2021/01/03 02:49:20;;;;;;;11.93;8.90;;;15.70;63.50;;;;;;5017286;28;20017;-55
2021/01/03 02:51:46;;;;;;;11.98;8.70;;;15.60;63.40;;;;;;5017350;28;20112;-55
2021/01/03 02:54:11;;;;;;;11.32;7.93;;;15.60;63.40;;;;;;5017164;28;20112;-56
2021/01/03 02:56:37;;;;;;;12.30;8.18;;;15.60;64.00;;;;;;5034615;28;20017;-56
2021/01/03 02:59:04;;;;;;;11.15;8.18;;;15.70;63.40;;;;;;5035034;28;20041;-55
2021/01/03 03:01:30;;;;;;;11.57;8.38;;;15.70;63.40;;;;;;5017058;28;20021;-56
2021/01/03 03:03:55;;;;;;;11.10;8.40;;;15.60;63.30;;;;;;5017038;28;20039;-55
2021/01/03 03:06:21;;;;;;;10.07;7.65;;;15.70;63.30;;;;;;5017153;28;20030;-56
2021/01/03 03:08:47;;;;;;;10.30;8.13;;;15.60;63.20;;;;;;5017084;28;20022;-55
2021/01/03 03:11:13;;;;;;;10.23;7.90;;;15.60;63.30;;;;;;5034998;28;20072;-55
2021/01/03 03:13:38;;;;;;;11.95;8.32;;;15.60;63.20;;;;;;5034582;28;20061;-56
2021/01/03 03:16:04;;;;;;;9.82;7.85;;;15.60;63.10;;;;;;5034871;28;20056;-55
2021/01/03 03:18:29;;;;;;;9.63;7.45;;;15.60;63.20;;;;;;5034693;28;20033;-55
2021/01/03 03:20:55;;;;;;;10.30;7.72;;;15.70;63.20;;;;;;5036341;28;20028;-55
2021/01/03 03:23:21;;;;;;;9.32;7.70;;;15.60;63.10;;;;;;5034543;28;20121;-55
2021/01/03 03:25:48;;;;;;;11.20;8.05;;;15.60;63.00;;;;;;5016591;28;20398;-56
2021/01/03 03:28:15;;;;;;;10.85;7.80;;;15.60;63.10;;;;;;5016665;28;20025;-56
2021/01/03 03:30:41;;;;;;;10.20;7.70;;;15.60;63.20;;;;;;5016756;28;20860;-55
2021/01/03 03:33:06;;;;;;;11.05;7.53;;;15.60;63.10;;;;;;5016344;28;20018;-55
2021/01/03 03:35:35;;;;;;;8.40;6.57;;;15.60;63.00;;;;;;5016419;28;20032;-56
2021/01/03 03:38:01;;;;;;;10.38;7.88;;;15.60;63.00;;;;;;5016458;28;20026;-56
2021/01/03 03:40:27;;;;;;;12.63;7.55;;;15.60;63.10;;;;;;5033988;28;20029;-56
2021/01/03 03:42:53;;;;;;;11.13;8.43;;;15.60;62.80;;;;;;5016547;28;20044;-56
2021/01/03 03:45:19;;;;;;;9.57;7.10;;;15.60;62.80;;;;;;5034063;28;20071;-59
2021/01/03 03:47:45;;;;;;;10.02;7.47;;;15.60;63.00;;;;;;5016382;28;20040;-56
2021/01/03 03:50:17;;;;;;;11.07;8.05;;;15.70;63.00;;;;;;5034090;28;20041;-56
2021/01/03 03:52:44;;;;;;;11.30;7.45;;;15.70;62.80;;;;;;5034334;28;20091;-56
2021/01/03 03:55:10;;;;;;;9.00;6.78;;;15.70;62.70;;;;;;5034023;28;20022;-57
2021/01/03 03:57:36;;;;;;;8.77;6.57;;;15.70;63.00;;;;;;5033496;28;20755;-56
2021/01/03 04:00:08;;;;;;;10.98;7.13;;;15.70;63.00;;;;;;5033890;28;20029;-55
2021/01/03 04:02:34;;;;;;;11.13;7.93;;;15.70;62.70;;;;;;5033811;28;20265;-55
2021/01/03 04:04:59;;;;;;;8.75;6.50;;;15.70;62.80;;;;;;5015833;28;20287;-56
2021/01/03 04:07:25;;;;;;;9.77;6.85;;;15.70;62.90;;;;;;5033798;28;20087;-56
2021/01/03 04:09:50;;;;;;;9.60;6.97;;;15.80;62.80;;;;;;5033547;28;20480;-55
2021/01/03 04:12:16;;;;;;;11.65;7.50;;;15.80;62.60;;;;;;5015943;28;20049;-56
2021/01/03 04:14:41;;;;;;;11.27;7.80;;;15.90;62.70;;;;;;5033505;28;20021;-57
2021/01/03 04:17:07;;;;;;;9.85;7.30;;;15.90;62.80;;;;;;5033466;28;20483;-56
2021/01/03 04:19:32;;;;;;;10.88;6.65;;;15.90;62.80;;;;;;5033441;28;20067;-56
2021/01/03 04:22:01;;;;;;;10.10;6.75;;;15.90;63.00;;;;;;5017548;28;20103;-55
2021/01/03 04:24:27;;;;;;;11.40;7.75;;;15.90;62.70;;;;;;5015491;28;20025;-56
2021/01/03 04:26:58;;;;;;;8.55;6.38;;;16.00;62.80;;;;;;5033232;28;20029;-56
2021/01/03 04:29:24;;;;;;;9.68;7.15;;;15.90;62.60;;;;;;5033258;28;20026;-55
2021/01/03 04:32:05;;;;;;;10.20;6.88;;;15.90;62.60;;;;;;5033174;28;20108;-57
2021/01/03 04:34:30;;;;;;;10.43;7.13;;;15.90;62.60;;;;;;5015409;28;20116;-56
2021/01/03 04:36:57;;;;;;;11.35;6.60;;;15.90;62.60;;;;;;5015278;28;20124;-56
2021/01/03 04:39:24;;;;;;;10.95;6.85;;;15.90;62.50;;;;;;5033455;28;20084;-56
2021/01/03 04:42:00;;;;;;;10.05;6.65;;;15.90;62.50;;;;;;5015321;28;20112;-55
2021/01/03 04:44:34;;;;;;;10.82;6.82;;;15.80;62.40;;;;;;5015183;28;20035;-56
2021/01/03 04:47:05;;;;;;;9.93;7.18;;;15.80;62.40;;;;;;5032876;28;20106;-56
2021/01/03 04:49:39;;;;;;;10.75;6.75;;;15.80;62.50;;;;;;5014938;28;20024;-56
2021/01/03 04:52:40;;;;;;;9.45;6.65;;;15.80;62.50;;;;;;5032786;28;20163;-54
2021/01/03 04:55:26;;;;;;;9.00;6.57;;;15.80;62.40;;;;;;5002676;28;20065;-56
2021/01/03 04:58:17;;;;;;;11.27;6.68;;;15.80;62.40;;;;;;5032780;28;20435;-55
2021/01/03 05:00:59;;;;;;;9.35;6.03;;;15.80;62.50;;;;;;5032840;28;20463;-56
2021/01/03 05:03:39;;;;;;;10.60;6.63;;;15.80;62.30;;;;;;5032784;28;20083;-56
2021/01/03 05:06:06;;;;;;;;;;;15.80;62.20;;;;;;5033336;28;20476;-56
2021/01/03 05:08:45;;;;;;;8.88;6.35;;;15.80;62.40;;;;;;5032142;28;19909;-55
2021/01/03 05:11:15;;;;;;;9.55;6.63;;;15.80;62.40;;;;;;5014866;28;20025;-56
2021/01/03 05:13:54;;;;;;;9.93;6.05;;;15.80;62.20;;;;;;5032154;28;20104;-56
2021/01/03 05:16:21;;;;;;;10.43;6.88;;;15.80;62.20;;;;;;5032772;28;20075;-54
2021/01/03 05:18:47;;;;;;;9.52;6.32;;;15.70;62.30;;;;;;5032679;28;20401;-57
2021/01/03 05:21:12;;;;;;;9.18;6.15;;;15.80;62.20;;;;;;5034028;28;20022;-55
2021/01/03 05:23:55;;;;;;;8.93;5.85;;;15.80;62.10;;;;;;5032292;28;20433;-57
2021/01/03 05:26:31;;;;;;;7.05;5.18;;;15.80;62.10;;;;;;5032144;28;20116;-57
2021/01/03 05:28:57;;;;;;;8.63;6.18;;;15.70;62.20;;;;;;5014495;28;20064;-55
2021/01/03 05:31:23;;;;;;;9.85;6.82;;;15.70;62.20;;;;;;5032330;28;20045;-55
2021/01/03 05:33:59;;;;;;;8.43;5.85;;;15.70;62.00;;;;;;5032191;28;20511;-56
2021/01/03 05:36:44;;;;;;;9.88;6.05;;;15.70;62.00;;;;;;5032224;28;20025;-56
2021/01/03 05:39:21;;;;;;;10.60;6.38;;;15.70;62.20;;;;;;5032079;28;20455;-55
2021/01/03 05:41:46;;;;;;;9.85;6.72;;;15.70;62.10;;;;;;5032081;28;20069;-56
2021/01/03 05:44:21;;;;;;;9.90;6.32;;;15.70;62.50;;;;;;5031927;28;20060;-55
2021/01/03 05:46:51;;;;;;;9.73;6.32;;;15.70;61.80;;;;;;5032062;28;20038;-55
2021/01/03 05:49:26;;;;;;;7.90;5.88;;;15.70;61.80;;;;;;5031789;28;20056;-55
2021/01/03 05:52:19;;;;;;;9.02;6.35;;;15.70;61.90;;;;;;5031970;28;20029;-56
2021/01/03 05:54:45;;;;;;;8.85;5.70;;;15.70;61.80;;;;;;5031835;28;20130;-55
2021/01/03 05:57:32;;;;;;;10.90;6.45;;;15.70;61.70;;;;;;5032132;28;20022;-56
2021/01/03 06:00:13;;;;;;;11.50;6.28;;;15.70;61.80;;;;;;5031739;28;20484;-56
2021/01/03 06:02:38;;;;;;;6.95;5.43;;;15.70;61.80;;;;;;5031772;28;20021;-56
2021/01/03 06:05:05;;;;;;;9.73;6.55;;;15.60;61.70;;;;;;5013758;28;20037;-56
2021/01/03 06:07:32;;;;;;;10.13;6.88;;;15.60;61.60;;;;;;5014073;28;20104;-55
2021/01/03 06:09:57;;;;;;;8.88;6.40;;;15.60;61.60;;;;;;5031645;28;20105;-55
2021/01/03 06:12:29;;;;;;;8.93;6.45;;;15.60;61.80;;;;;;5013930;28;20116;-55
2021/01/03 06:14:56;;;;;;;8.65;5.78;;;15.60;61.80;;;;;;5013901;28;20172;-55
2021/01/03 06:17:34;;;;;;;7.93;5.93;;;15.50;61.70;;;;;;5030357;28;20117;-56
2021/01/03 06:20:06;;;;;;;7.93;5.70;;;15.40;61.90;;;;;;5032324;28;20116;-55
2021/01/03 06:22:37;;;;;;;10.15;5.97;;;15.40;62.10;;;;;;5037629;28;20057;-56
2021/01/03 06:25:18;;;;;;;11.93;6.43;;;15.30;62.10;;;;;;5035679;28;20113;-56
2021/01/03 06:27:48;;;;;;;10.35;5.97;;;15.30;62.20;;;;;;5017625;28;20120;-56
2021/01/03 06:30:16;;;;;;;9.55;6.05;;;15.30;62.30;;;;;;5017766;28;20048;-55
2021/01/03 06:32:51;;;;;;;7.82;5.68;;;15.20;62.20;;;;;;5017448;28;20422;-57
2021/01/03 06:35:29;;;;;;;9.15;5.95;;;15.20;61.90;;;;;;5035225;28;20033;-55
2021/01/03 06:38:14;;;;;;;9.50;6.00;;;15.10;61.90;;;;;;5017564;28;20113;-56
2021/01/03 06:40:47;;;;;;;9.27;5.82;;;15.10;62.20;;;;;;5017574;28;20029;-54
2021/01/03 06:43:40;;;;;;;9.10;5.60;;;15.10;62.30;;;;;;5035211;28;20483;-56
2021/01/03 06:46:17;;;;;;;10.18;6.38;;;15.10;62.20;;;;;;5017420;28;20073;-54
2021/01/03 06:49:18;;;;;;;9.00;6.13;;;15.10;61.90;;;;;;5017610;28;20029;-55
2021/01/03 06:51:43;;;;;;;8.40;6.10;;;15.00;62.00;;;;;;4992717;28;20157;-56
2021/01/03 06:54:37;;;;;;;11.23;6.65;;;15.00;61.90;;;;;;5035101;28;20468;-56
2021/01/03 06:57:25;;;;;;;9.10;6.13;;;15.00;61.80;;;;;;5035166;28;20111;-56
2021/01/03 07:00:02;;;;;;;9.73;6.43;;;14.90;61.60;;;;;;5017177;28;20034;-56
2021/01/03 07:02:28;;;;;;;10.23;6.38;;;14.90;61.60;;;;;;5017105;28;20426;-54
2021/01/03 07:04:54;;;;;;;11.20;6.80;;;15.00;61.70;;;;;;5016974;28;20031;-53
2021/01/03 07:07:29;;;;;;;11.75;6.80;;;14.90;61.60;;;;;;5035020;28;20037;-61
2021/01/03 07:09:58;;;;;;;10.68;6.75;;;14.90;61.60;;;;;;5034676;28;20021;-55
2021/01/03 07:12:38;;;;;;;9.20;6.28;;;14.80;61.60;;;;;;5034626;28;20080;-55
2021/01/03 07:15:09;;;;;;;;;;;14.80;61.70;;;;;;5035154;28;20022;-56
2021/01/03 07:17:54;;;;;;;10.50;6.18;;;14.80;61.60;;;;;;5034768;28;19905;-52
2021/01/03 07:20:50;;;;;;;7.70;5.95;;;14.80;61.60;;;;;;5034602;28;20222;-55
2021/01/03 07:23:38;;;;;;;11.60;7.13;;;14.80;61.70;;;;;;5034702;28;20057;-56
2021/01/03 07:26:28;;;;;;;10.75;6.32;;;14.80;61.60;;;;;;5016494;28;20065;-55
2021/01/03 07:28:59;;;;;;;11.73;6.93;;;14.80;61.70;;;;;;5034517;28;20029;-55
2021/01/03 07:31:42;;;;;;;10.75;6.82;;;14.80;61.70;;;;;;5033323;28;20029;-55
2021/01/03 07:34:08;;;;;;;8.40;6.00;;;14.70;61.70;;;;;;5016428;28;20048;-55
2021/01/03 07:37:04;;;;;;;9.02;5.95;;;14.70;61.80;;;;;;5016453;28;20021;-55
2021/01/03 07:39:31;;;;;;;8.50;6.03;;;14.70;61.80;;;;;;5034239;28;20029;-57
2021/01/03 07:42:22;;;;;;;10.82;6.40;;;14.70;61.90;;;;;;5034050;28;20025;-57
2021/01/03 07:44:50;;;;;;;10.57;6.40;;;14.70;62.00;;;;;;5034219;28;20025;-55
2021/01/03 07:47:34;;;;;;;9.52;6.72;;;14.70;61.90;;;;;;5034120;28;20056;-56
2021/01/03 07:50:20;;;;;;;11.15;6.88;;;14.70;62.10;;;;;;5016007;28;20030;-56
2021/01/03 07:52:55;;;;;;;10.30;6.55;;;14.70;62.10;;;;;;5033990;28;20353;-54
2021/01/03 07:55:32;;;;;;;10.98;6.68;;;14.70;62.20;;;;;;5016160;28;20500;-55
2021/01/03 07:58:14;;;;;;;9.90;5.88;;;14.70;62.80;;;;;;5033674;28;20028;-55
2021/01/03 08:00:41;;;;;;;12.38;7.05;;;14.70;62.80;;;;;;5033636;28;20057;-55
2021/01/03 08:03:14;;;;;;;11.02;7.10;;;14.70;62.30;;;;;;5033709;28;20028;-55
2021/01/03 08:05:49;;;;;;;12.82;7.30;;;14.60;62.10;;;;;;5015917;28;20120;-55
2021/01/03 08:08:24;;;;;;;11.57;7.82;;;14.60;62.00;;;;;;5015691;28;20514;-53
2021/01/03 08:11:02;;;;;;;13.90;7.47;;;14.60;62.00;;;;;;5015641;28;20143;-52
2021/01/03 08:13:40;;;;;;;11.60;7.72;;;14.60;62.00;;;;;;5015628;28;20025;-54
2021/01/03 08:16:06;;;;;;;12.27;6.95;;;14.50;62.00;;;;;;5033404;28;20033;-55
2021/01/03 08:18:38;;;;;;;11.13;7.65;;;14.60;61.90;;;;;;5033520;28;20075;-54
2021/01/03 08:21:15;;;;;;;10.98;7.20;;;14.60;61.90;;;;;;5015629;28;20021;-52
2021/01/03 08:23:41;;;;;;;11.43;6.95;;;14.50;61.90;;;;;;5023030;28;20053;-54
2021/01/03 08:26:17;;;;;;;11.23;6.80;;;14.50;62.20;;;;;;5031793;28;20044;-52
2021/01/03 08:29:25;;;;;;;11.18;6.95;;;14.50;62.30;;;;;;5033431;28;20053;-54
2021/01/03 08:31:55;;;;;;;10.30;6.70;;;14.50;62.30;;;;;;4972076;28;20038;-56
2021/01/03 08:34:28;;;;;;;11.20;6.85;;;14.50;62.60;;;;;;5018046;28;20038;-56
2021/01/03 08:36:54;;;;;;;10.45;6.63;;;14.50;62.60;;;;;;5033357;28;20029;-55
2021/01/03 08:39:23;;;;;;;12.43;7.88;;;14.60;62.40;;;;;;5033090;28;20509;-54
2021/01/03 08:42:04;;;;;;;13.43;7.47;;;14.60;62.30;;;;;;5032847;28;20108;-52
2021/01/03 08:44:37;;;;;;;12.23;7.10;;;14.60;62.10;;;;;;5015192;28;20072;-54
2021/01/03 08:47:12;;;;;;;13.60;8.35;;;14.60;62.20;;;;;;5031596;28;20395;-54
2021/01/03 08:49:44;;;;;;;12.50;7.70;;;14.70;62.30;;;;;;5032933;28;20125;-54
2021/01/03 08:52:23;;;;;;;13.27;7.93;;;14.70;62.50;;;;;;5031490;28;20460;-52
2021/01/03 08:55:02;;;;;;;12.90;8.15;;;14.70;62.40;;;;;;5032714;28;20036;-53
2021/01/03 08:57:28;;;;;;;15.52;8.35;;;14.70;62.50;;;;;;5032849;28;20021;-53
2021/01/03 08:59:54;;;;;;;17.58;8.23;;;14.70;62.30;;;;;;5031349;28;20056;-54
2021/01/03 09:02:25;;;;;;;12.13;8.18;;;14.70;62.10;;;;;;5031397;28;20021;-53
2021/01/03 09:04:59;;;;;;;13.15;8.15;;;14.70;62.40;;;;;;5031260;28;20029;-52
2021/01/03 09:07:27;;;;;;;14.52;7.70;;;14.70;62.50;;;;;;5031160;28;20033;-54
2021/01/03 09:09:53;;;;;;;13.95;8.15;;;14.80;62.40;;;;;;5031089;28;20534;-53
2021/01/03 09:12:38;;;;;;;12.88;7.95;;;14.80;62.30;;;;;;5031185;28;20029;-53
2021/01/03 09:15:09;;;;;;;11.13;7.03;;;14.90;62.30;;;;;;5031272;28;20032;-51
2021/01/03 09:17:38;;;;;;;11.82;8.18;;;14.90;62.20;;;;;;5031145;28;20116;-52
2021/01/03 09:20:27;;;;;;;11.85;7.57;;;15.00;62.00;;;;;;5031105;28;20029;-53
2021/01/03 09:23:07;;;;;;;11.55;7.10;;;15.00;61.90;;;;;;5031926;28;20046;-54
2021/01/03 09:25:36;;;;;;;14.75;7.93;;;15.10;61.80;;;;;;5032106;28;20386;-54
2021/01/03 09:28:25;;;;;;;12.85;8.30;;;15.10;61.70;;;;;;5014642;28;20386;-54
2021/01/03 09:30:51;;;;;;;12.88;7.75;;;15.20;61.70;;;;;;5014728;28;20022;-54
2021/01/03 09:33:20;;;;;;;12.55;6.97;;;15.10;61.50;;;;;;5032505;28;20029;-55
2021/01/03 09:35:59;;;;;;;12.90;6.88;;;15.20;61.50;;;;;;5032261;28;20369;-55
2021/01/03 09:38:40;;;;;;;11.65;7.20;;;15.20;61.40;;;;;;5030695;28;20448;-56
2021/01/03 09:41:20;;;;;;;10.05;6.78;;;15.20;61.30;;;;;;5030894;28;20030;-53
2021/01/03 09:44:13;;;;;;;11.02;7.38;;;15.30;61.30;;;;;;5032080;28;20029;-54
2021/01/03 09:46:57;;;;;;;11.80;6.78;;;15.30;61.30;;;;;;5032029;28;20086;-54
2021/01/03 09:49:28;;;;;;;10.70;7.45;;;15.30;61.20;;;;;;5032200;28;20040;-55
2021/01/03 09:52:12;;;;;;;12.02;7.85;;;15.30;61.10;;;;;;5031946;28;20022;-51
2021/01/03 09:54:56;;;;;;;10.30;6.65;;;15.40;61.00;;;;;;5030010;28;20080;-55
2021/01/03 09:57:39;;;;;;;10.27;6.63;;;15.40;60.90;;;;;;5031893;28;20108;-54
2021/01/03 10:00:17;;;;;;;9.73;6.22;;;15.40;60.90;;;;;;5031040;28;20041;-54
2021/01/03 10:02:43;;;;;;;10.30;6.72;;;15.40;60.80;;;;;;5031841;28;20067;-52
2021/01/03 10:05:31;;;;;;;11.48;7.93;;;15.50;60.80;;;;;;5030369;28;20045;-55
2021/01/03 10:08:03;;;;;;;9.20;7.15;;;15.50;60.80;;;;;;5030462;28;20021;-55
2021/01/03 10:10:47;;;;;;;11.30;7.22;;;15.50;60.80;;;;;;5031721;28;20399;-55
2021/01/03 10:13:14;;;;;;;9.43;6.43;;;15.50;60.60;;;;;;5030547;28;20018;-55
2021/01/03 10:15:41;;;;;;;9.55;6.97;;;15.50;60.50;;;;;;5031869;28;20021;-53
2021/01/03 10:18:10;;;;;;;11.80;6.53;;;15.50;60.50;;;;;;5028965;28;20026;-53
2021/01/03 10:20:43;;;;;;;12.40;7.50;;;15.60;60.50;;;;;;5031757;28;20022;-53
2021/01/03 10:23:46;;;;;;;10.55;7.07;;;15.50;60.30;;;;;;5033445;28;20057;-54
2021/01/03 10:26:33;;;;;;;8.85;6.63;;;15.50;60.30;;;;;;5028696;28;20469;-53
2021/01/03 10:28:59;;;;;;;8.95;6.40;;;15.50;60.20;;;;;;5031632;28;20018;-53
2021/01/03 10:31:36;;;;;;;7.97;5.80;;;15.50;60.10;;;;;;5031951;28;20496;-57
2021/01/03 10:34:02;;;;;;;12.23;7.00;;;15.50;60.00;;;;;;5013958;28;20083;-54
2021/01/03 10:36:27;;;;;;;10.30;7.15;;;15.60;60.00;;;;;;5031579;28;20026;-55
2021/01/03 10:38:53;;;;;;;9.40;6.53;;;15.60;60.00;;;;;;5013830;28;20499;-54
2021/01/03 10:41:19;;;;;;;9.30;6.50;;;15.60;60.00;;;;;;5013936;28;20469;-53
2021/01/03 10:43:46;;;;;;;9.18;6.28;;;15.60;60.00;;;;;;5013867;28;20375;-54
2021/01/03 10:46:12;;;;;;;9.25;6.20;;;15.70;60.00;;;;;;5013627;28;20042;-54
2021/01/03 10:48:37;;;;;;;9.85;6.07;;;15.70;60.00;;;;;;5030220;28;20353;-53
2021/01/03 10:51:03;;;;;;;8.38;5.95;;;15.70;60.00;;;;;;5031488;28;20121;-55
2021/01/03 10:53:29;;;;;;;8.32;5.82;;;15.70;59.90;;;;;;5031309;28;20513;-54
2021/01/03 10:55:55;;;;;;;8.25;6.22;;;15.80;59.80;;;;;;5029959;28;20026;-53
2021/01/03 10:58:20;;;;;;;7.45;5.53;;;15.90;59.60;;;;;;5030056;28;20065;-53
2021/01/03 11:00:46;;;;;;;8.55;6.30;;;15.90;59.50;;;;;;5030097;28;20035;-53
2021/01/03 11:03:11;;;;;;;8.57;5.97;;;16.00;59.20;;;;;;5031139;28;20095;-52
2021/01/03 11:05:37;;;;;;;8.25;5.78;;;16.20;59.20;;;;;;5032252;28;20037;-52
2021/01/03 11:08:03;;;;;;;7.80;5.90;;;16.30;58.90;;;;;;5033287;28;20383;-50
2021/01/03 11:10:28;;;;;;;8.93;5.97;;;16.40;58.70;;;;;;5033445;28;20022;-54
2021/01/03 11:12:54;;;;;;;9.40;6.07;;;16.40;58.60;;;;;;5033477;28;20033;-53
2021/01/03 11:15:20;;;;;;;7.28;5.15;;;16.50;58.50;;;;;;5033447;28;20603;-54
2021/01/03 11:17:45;;;;;;;8.07;5.72;;;16.50;58.40;;;;;;5034711;28;20618;-50
2021/01/03 11:20:11;;;;;;;6.93;5.20;;;16.60;58.20;;;;;;5034659;28;20025;-55
2021/01/03 11:22:37;;;;;;;6.60;5.10;;;16.60;58.00;;;;;;5035886;28;20542;-55
2021/01/03 11:25:03;;;;;;;8.02;5.80;;;16.70;57.90;;;;;;5015628;28;20033;-51
2021/01/03 11:27:29;;;;;;;7.07;5.65;;;16.70;57.70;;;;;;5015842;28;20030;-53
2021/01/03 11:29:55;;;;;;;7.57;4.85;;;16.80;57.60;;;;;;5016530;28;20021;-54
2021/01/03 11:32:24;;;;;;;6.72;4.93;;;16.90;57.50;;;;;;5034287;28;20034;-51
2021/01/03 11:34:50;;;;;;;6.85;5.63;;;16.90;57.40;;;;;;5034327;28;20034;-55
2021/01/03 11:37:20;;;;;;;6.05;4.70;;;17.00;57.10;;;;;;5034711;28;20029;-54
2021/01/03 11:39:47;;;;;;;5.55;4.45;;;17.00;57.00;;;;;;5016706;28;20036;-54
2021/01/03 11:42:16;;;;;;;6.70;4.78;;;17.10;56.90;;;;;;5016553;28;20025;-55
2021/01/03 11:44:43;;;;;;;5.60;4.55;;;17.10;56.80;;;;;;5034037;28;20022;-54
2021/01/03 11:47:12;;;;;;;7.10;4.90;;;17.20;56.70;;;;;;5032939;28;20056;-55
2021/01/03 11:49:38;;;;;;;7.15;4.18;;;17.20;56.60;;;;;;5033695;28;20400;-55
2021/01/03 11:52:05;;;;;;;5.82;4.15;;;17.30;56.70;;;;;;5033994;28;20033;-57
2021/01/03 11:54:31;;;;;;;6.70;4.35;;;17.30;56.40;;;;;;5032671;28;20563;-55
2021/01/03 11:56:58;;;;;;;7.60;4.95;;;17.30;56.20;;;;;;5034265;28;20033;-55
2021/01/03 11:59:24;;;;;;;5.65;4.57;;;17.40;56.20;;;;;;5033961;28;20022;-56
2021/01/03 12:01:56;;;;;;;5.18;3.83;;;17.40;56.10;;;;;;5032600;28;20040;-55
2021/01/03 12:04:21;;;;;;;5.50;4.30;;;17.40;56.00;;;;;;5032542;28;20060;-55
2021/01/03 12:06:57;;;;;;;5.40;4.43;;;17.40;55.80;;;;;;5033773;28;20443;-55
2021/01/03 12:09:29;;;;;;;4.93;4.15;;;17.40;55.70;;;;;;5032499;28;20030;-56
2021/01/03 12:11:57;;;;;;;4.55;4.03;;;17.40;55.60;;;;;;5032419;28;20025;-55
2021/01/03 12:14:23;;;;;;;5.03;4.03;;;17.50;55.50;;;;;;5032564;28;20021;-56
2021/01/03 12:16:54;;;;;;;5.05;3.80;;;17.50;55.40;;;;;;5031869;28;20032;-56
2021/01/03 12:19:20;;;;;;;4.50;3.70;;;17.50;55.30;;;;;;5032170;28;20032;-56
2021/01/03 12:21:45;;;;;;;4.85;3.75;;;17.50;55.20;;;;;;5032873;28;20022;-55
2021/01/03 12:24:11;;;;;;;5.53;3.95;;;17.50;55.10;;;;;;5034178;28;20580;-56
2021/01/03 12:26:40;;;;;;;4.63;3.50;;;17.60;55.00;;;;;;5033113;28;20076;-53
2021/01/03 12:29:06;;;;;;;7.15;3.70;;;17.70;54.80;;;;;;5015463;28;20476;-55
2021/01/03 12:31:53;;;;;;;4.90;3.55;;;17.80;54.50;;;;;;5015414;28;20022;-54
2021/01/03 12:34:20;;;;;;;5.38;3.72;;;17.80;54.40;;;;;;5033259;28;20049;-54
2021/01/03 12:36:46;;;;;;;4.38;3.50;;;17.80;54.50;;;;;;5015111;28;20021;-55
2021/01/03 12:39:14;;;;;;;4.63;3.50;;;17.80;54.60;;;;;;5015331;28;20045;-55
2021/01/03 12:41:40;;;;;;;5.00;3.50;;;17.80;54.60;;;;;;5033032;28;20120;-55
2021/01/03 12:44:06;;;;;;;4.40;3.75;;;17.70;54.50;;;;;;5015231;28;20018;-56
2021/01/03 12:46:42;;;;;;;3.40;3.10;;;17.80;54.50;;;;;;5033074;28;20148;-56
2021/01/03 12:49:08;;;;;;;3.75;3.33;;;17.80;54.60;;;;;;5031396;28;20026;-54
2021/01/03 12:51:34;;;;;;;3.17;2.88;;;17.70;54.50;;;;;;5032676;28;20033;-55
2021/01/03 12:54:00;;;;;;;4.20;3.00;;;17.70;54.60;;;;;;5032678;28;20415;-55
2021/01/03 12:56:26;;;;;;;4.18;3.45;;;17.70;54.60;;;;;;5032625;28;20021;-56
2021/01/03 12:58:53;;;;;;;3.53;2.85;;;17.70;54.70;;;;;;5032977;28;20442;-56
2021/01/03 13:01:23;;;;;;;5.97;3.60;;;17.70;54.60;;;;;;5033062;28;20024;-55
2021/01/03 13:03:49;;;;;;;4.32;3.40;;;17.70;54.80;;;;;;5030731;28;20033;-54